Time;durP1;ratioP1;P1;durP2;ratioP2;P2;SDS_P1;SDS_P2;PMS_P1;PMS_P2;Temp;Humidity;BMP_temperature;BMP_pressure;BME280_temperature;BME280_humidity;BME280_pressure;Samples;Min_cycle;Max_cycle;Signal;HPM_P1;HPM_P2
2023/06/26 00:01:01;;;;;;;3.85;3.05;;;;;;;31.55;39.25;101157.22;5050513;27;100069;-80
2023/06/26 00:03:28;;;;;;;3.25;2.80;;;;;;;31.55;39.41;101146.13;5053222;27;97332;-81
2023/06/26 00:06:00;;;;;;;3.25;2.78;;;;;;;31.55;39.29;101139.72;5039569;27;97416;-81
2023/06/26 00:08:27;;;;;;;2.95;2.65;;;;;;;31.55;39.14;101153.59;5052219;27;96900;-80
2023/06/26 00:10:54;;;;;;;3.47;2.80;;;;;;;31.55;39.03;101139.72;5052983;27;96646;-80
2023/06/26 00:13:22;;;;;;;2.60;2.35;;;;;;;31.55;38.78;101135.00;5050894;27;97374;-81
2023/06/26 00:15:49;;;;;;;3.10;2.80;;;;;;;31.55;38.99;101136.94;5052449;27;96790;-81
2023/06/26 00:18:16;;;;;;;3.03;2.72;;;;;;;31.55;39.33;101135.00;5052935;27;96823;-80
2023/06/26 00:20:42;;;;;;;3.10;2.80;;;;;;;31.55;38.89;101132.22;5052063;27;97702;-81
2023/06/26 00:23:09;;;;;;;2.70;2.50;;;;;;;31.55;38.89;101128.63;5054070;27;96679;-80
2023/06/26 00:25:36;;;;;;;2.95;2.63;;;;;;;31.54;39.04;101127.75;5051960;27;96837;-81
2023/06/26 00:28:03;;;;;;;3.38;2.90;;;;;;;31.54;39.11;101127.75;5035855;27;96708;-81
2023/06/26 00:30:29;;;;;;;3.17;2.88;;;;;;;31.55;39.07;101120.28;5048205;27;96843;-80
2023/06/26 00:32:56;;;;;;;2.80;2.60;;;;;;;31.56;39.19;101116.41;5044939;27;97514;-81
2023/06/26 00:35:23;;;;;;;3.13;2.80;;;;;;;31.54;39.23;101115.81;5057543;27;96659;-81
2023/06/26 00:37:50;;;;;;;2.70;2.50;;;;;;;31.55;38.94;101125.84;5044275;27;96627;-81
2023/06/26 00:40:16;;;;;;;2.97;2.67;;;;;;;31.55;39.12;101123.06;5055280;27;96775;-80
2023/06/26 00:42:43;;;;;;;3.00;2.70;;;;;;;31.55;38.86;101131.38;5045842;27;98658;-81
2023/06/26 00:45:10;;;;;;;2.90;2.60;;;;;;;31.55;39.23;101123.91;5050362;27;96671;-81
2023/06/26 00:47:37;;;;;;;3.55;3.15;;;;;;;31.55;39.28;101117.50;5037641;27;96744;-81
2023/06/26 00:50:04;;;;;;;3.00;2.70;;;;;;;31.54;39.06;101124.16;5054694;27;98075;-80
2023/06/26 00:52:31;;;;;;;2.85;2.55;;;;;;;31.54;38.95;101113.88;5044315;27;98991;-81
2023/06/26 00:54:59;;;;;;;3.08;2.78;;;;;;;31.54;38.93;101113.03;5048901;27;96822;-80
2023/06/26 00:57:26;;;;;;;3.25;2.95;;;;;;;31.54;39.15;101115.81;5050811;27;97103;-81
2023/06/26 00:59:53;;;;;;;2.90;2.70;;;;;;;31.52;39.02;101113.28;5025508;27;98464;-80
2023/06/26 01:02:20;;;;;;;3.22;2.92;;;;;;;31.54;39.04;101125.00;5043664;27;96730;-81
2023/06/26 01:04:51;;;;;;;2.70;2.50;;;;;;;31.53;39.18;101120.53;5018769;28;97114;-81
2023/06/26 01:07:19;;;;;;;2.75;2.42;;;;;;;31.54;39.26;101116.66;5037336;27;96790;-81
2023/06/26 01:09:48;;;;;;;3.13;2.83;;;;;;;31.54;39.24;101116.66;5035169;27;96755;-81
2023/06/26 01:12:15;;;;;;;3.58;2.97;;;;;;;31.53;39.21;101114.13;5036491;27;98680;-81
2023/06/26 01:14:42;;;;;;;3.38;2.88;;;;;;;31.53;39.04;101116.91;5051996;27;96803;-81
2023/06/26 01:17:14;;;;;;;2.92;2.65;;;;;;;31.53;39.14;101117.75;5056374;27;96784;-81
2023/06/26 01:19:42;;;;;;;2.90;2.70;;;;;;;31.53;39.13;101120.53;5054390;27;99712;-80
2023/06/26 01:22:27;;;;;;;2.67;2.47;;;;;;;31.53;38.91;101125.22;5056389;27;97177;-80
2023/06/26 01:24:57;;;;;;;2.83;2.55;;;;;;;31.53;39.02;101128.00;5057523;27;97192;-80
2023/06/26 01:27:25;;;;;;;3.35;3.05;;;;;;;31.52;38.92;101129.09;5054857;27;97108;-80
2023/06/26 01:29:53;;;;;;;3.22;2.92;;;;;;;31.52;39.18;101127.16;5038939;27;98487;-80
2023/06/26 01:32:19;;;;;;;2.88;2.60;;;;;;;31.52;38.79;101129.94;5059250;27;98290;-80
2023/06/26 01:34:46;;;;;;;3.25;2.95;;;;;;;31.52;38.88;101131.88;5053559;27;96626;-81
2023/06/26 01:37:13;;;;;;;3.30;3.00;;;;;;;31.52;39.23;101135.50;5045478;27;96935;-80
2023/06/26 01:39:39;;;;;;;3.10;2.80;;;;;;;31.52;38.90;101138.25;5051013;27;96858;-81
2023/06/26 01:42:07;;;;;;;3.28;2.97;;;;;;;31.52;38.69;101134.66;5054142;27;99113;-80
2023/06/26 01:44:41;;;;;;;3.53;2.90;;;;;;;31.53;38.73;101147.44;5051677;27;96683;-81
2023/06/26 01:47:14;;;;;;;4.57;3.20;;;;;;;31.52;39.09;101143.81;5041849;27;97488;-80
2023/06/26 01:49:52;;;;;;;3.22;2.92;;;;;;;31.52;39.01;101152.16;5053569;27;100679;-80
2023/06/26 01:52:28;;;;;;;2.83;2.63;;;;;;;31.52;38.95;101154.91;5053408;27;96814;-81
2023/06/26 01:55:24;;;;;;;2.92;2.72;;;;;;;31.52;38.81;101156.84;5036051;27;96655;-81
2023/06/26 01:57:54;;;;;;;3.15;2.85;;;;;;;31.51;38.96;101157.94;5049345;27;97428;-81
2023/06/26 02:00:21;;;;;;;3.70;3.30;;;;;;;31.51;39.18;101160.72;5053549;27;100020;-81
2023/06/26 02:02:48;;;;;;;3.72;2.60;;;;;;;31.51;38.85;101152.38;5047224;27;98040;-81
2023/06/26 02:05:15;;;;;;;3.53;2.95;;;;;;;31.51;38.87;101169.03;5065689;27;97047;-80
2023/06/26 02:07:42;;;;;;;3.00;2.70;;;;;;;31.51;38.71;101169.03;5053085;27;96837;-81
2023/06/26 02:10:09;;;;;;;3.15;2.85;;;;;;;31.52;39.03;101177.13;5052361;27;99279;-81
2023/06/26 02:12:37;;;;;;;3.30;3.00;;;;;;;31.52;38.92;101174.34;5036977;27;100819;-81
2023/06/26 02:15:04;;;;;;;4.10;2.92;;;;;;;31.52;39.01;101173.50;5051707;27;96760;-81
2023/06/26 02:17:32;;;;;;;3.40;3.10;;;;;;;31.50;38.96;101182.06;5053826;27;96823;-80
2023/06/26 02:19:59;;;;;;;3.22;2.92;;;;;;;31.52;38.82;101181.84;5054553;27;97683;-82
2023/06/26 02:22:25;;;;;;;3.25;2.95;;;;;;;31.51;38.79;101185.69;5052445;27;98074;-81
2023/06/26 02:24:52;;;;;;;3.17;2.90;;;;;;;31.52;39.04;101181.84;5054512;27;96823;-81
2023/06/26 02:27:18;;;;;;;3.00;2.78;;;;;;;31.51;38.86;101182.94;5054095;27;96908;-81
2023/06/26 02:29:45;;;;;;;3.60;2.85;;;;;;;31.51;38.60;101175.44;5055092;27;96884;-80
2023/06/26 02:32:11;;;;;;;3.67;3.10;;;;;;;31.50;39.04;101181.22;5052963;27;97182;-81
2023/06/26 02:34:38;;;;;;;3.10;2.80;;;;;;;31.51;38.73;101183.78;5053592;27;97416;-80
2023/06/26 02:37:07;;;;;;;3.38;3.08;;;;;;;31.51;38.83;101185.69;5048441;27;96996;-81
2023/06/26 02:39:35;;;;;;;3.13;2.88;;;;;;;31.50;38.54;101179.31;5052647;27;99698;-81
2023/06/26 02:42:02;;;;;;;3.35;3.05;;;;;;;31.51;38.76;101174.59;5053444;27;99113;-80
2023/06/26 02:44:28;;;;;;;3.85;3.05;;;;;;;31.50;38.66;101184.00;5053937;27;96714;-80
2023/06/26 02:46:55;;;;;;;3.20;2.90;;;;;;;31.51;38.52;101191.25;5036243;27;96838;-81
2023/06/26 02:49:22;;;;;;;3.08;2.80;;;;;;;31.51;38.69;101188.47;5050950;27;99604;-80
2023/06/26 02:51:49;;;;;;;3.08;2.88;;;;;;;31.50;38.72;101186.78;5052755;27;100768;-80
2023/06/26 02:54:27;;;;;;;2.92;2.53;;;;;;;31.49;38.82;101194.28;5051858;27;96780;-81
2023/06/26 02:57:00;;;;;;;2.90;2.70;;;;;;;31.49;38.91;101194.28;5051699;27;96950;-80
2023/06/26 02:59:29;;;;;;;2.80;2.60;;;;;;;31.50;38.92;101201.50;5052891;27;99636;-81
2023/06/26 03:01:57;;;;;;;3.35;2.80;;;;;;;31.50;38.82;101209.00;5050425;27;99436;-81
2023/06/26 03:04:31;;;;;;;;;;;;;;;31.45;38.74;101206.09;5052282;27;96917;-80
2023/06/26 03:06:59;;;;;;;3.33;3.03;;;;;;;31.44;38.90;101210.78;5051558;27;96789;-81
2023/06/26 03:09:26;;;;;;;3.03;2.83;;;;;;;31.46;38.70;101210.56;5051228;27;98771;-80
2023/06/26 03:11:52;;;;;;;2.90;2.65;;;;;;;31.47;38.98;101226.13;5051144;27;99020;-80
2023/06/26 03:14:20;;;;;;;3.30;3.00;;;;;;;31.46;38.59;101222.50;5036169;27;96779;-80
2023/06/26 03:16:47;;;;;;;3.30;2.92;;;;;;;31.48;38.86;101217.56;5048422;27;97595;-81
2023/06/26 03:19:13;;;;;;;3.25;2.83;;;;;;;31.47;38.77;101213.09;5049102;27;100342;-81
2023/06/26 03:22:03;;;;;;;3.38;2.92;;;;;;;31.46;38.83;101214.19;5047010;27;98364;-80
2023/06/26 03:24:30;;;;;;;2.70;2.50;;;;;;;31.47;38.70;101215.03;5032070;27;97560;-81
2023/06/26 03:26:57;;;;;;;3.00;2.70;;;;;;;31.46;38.66;101210.56;5033178;27;97265;-80
2023/06/26 03:29:23;;;;;;;3.20;2.90;;;;;;;31.46;38.87;101224.44;5047570;27;99002;-81
2023/06/26 03:31:50;;;;;;;2.67;2.47;;;;;;;31.47;38.75;101224.19;5049662;27;99502;-81
2023/06/26 03:34:17;;;;;;;3.10;2.80;;;;;;;31.47;38.59;101229.75;5052356;27;97125;-80
2023/06/26 03:36:44;;;;;;;3.30;3.00;;;;;;;31.47;38.61;101232.53;5053075;27;96898;-81
2023/06/26 03:39:11;;;;;;;2.80;2.60;;;;;;;31.47;38.82;101231.69;5052663;27;99124;-81
2023/06/26 03:41:37;;;;;;;3.13;2.83;;;;;;;31.47;38.56;101232.53;5042144;27;96718;-80
2023/06/26 03:44:04;;;;;;;3.28;2.97;;;;;;;31.47;38.47;101234.44;5053957;27;96746;-80
2023/06/26 03:46:41;;;;;;;2.92;2.72;;;;;;;31.46;38.47;101222.50;5052864;27;96865;-80
2023/06/26 03:49:07;;;;;;;3.45;2.70;;;;;;;31.46;38.84;101235.53;5051797;27;98467;-80
2023/06/26 03:51:37;;;;;;;3.17;2.88;;;;;;;31.46;38.71;101224.44;5036113;27;99234;-80
2023/06/26 03:54:03;;;;;;;3.35;3.05;;;;;;;31.47;38.48;101226.13;5051868;27;96787;-81
2023/06/26 03:56:30;;;;;;;2.92;2.67;;;;;;;31.47;38.50;101223.34;5051685;27;96982;-80
2023/06/26 03:58:56;;;;;;;2.60;2.40;;;;;;;31.46;38.51;101232.75;5050496;27;97245;-80
2023/06/26 04:01:25;;;;;;;2.85;2.60;;;;;;;31.45;38.93;101229.13;5038664;27;100204;-80
2023/06/26 04:03:52;;;;;;;3.17;2.88;;;;;;;31.46;38.54;101233.59;5049813;27;97722;-80
2023/06/26 04:06:19;;;;;;;2.83;2.63;;;;;;;31.46;38.53;101232.75;5052532;27;96981;-80
2023/06/26 04:08:45;;;;;;;2.72;2.53;;;;;;;31.45;38.44;101233.84;5051048;27;99966;-81
2023/06/26 04:11:12;;;;;;;3.35;3.05;;;;;;;31.45;38.82;101248.56;5035444;27;100274;-81
2023/06/26 04:13:38;;;;;;;2.72;2.47;;;;;;;31.45;38.72;101247.72;5051729;27;96708;-80
2023/06/26 04:16:06;;;;;;;3.17;2.88;;;;;;;31.45;38.62;101248.56;5035429;27;96837;-80
2023/06/26 04:18:33;;;;;;;3.17;2.90;;;;;;;31.45;38.50;101245.78;5052418;27;98876;-80
2023/06/26 04:21:14;;;;;;;2.80;2.50;;;;;;;31.46;38.50;101263.28;5053323;27;96887;-81
2023/06/26 04:23:40;;;;;;;2.95;2.63;;;;;;;31.44;38.83;101265.47;5052349;27;97323;-81
2023/06/26 04:26:08;;;;;;;2.50;2.30;;;;;;;31.44;38.60;101266.31;5053261;27;96694;-81
2023/06/26 04:28:35;;;;;;;3.25;2.67;;;;;;;31.44;38.22;101271.88;5051652;27;97278;-84
2023/06/26 04:31:05;;;;;;;2.97;2.72;;;;;;;31.44;38.40;101277.41;5053810;27;97028;-81
2023/06/26 04:33:32;;;;;;;2.97;2.67;;;;;;;31.43;38.50;101272.94;5051716;27;96926;-81
2023/06/26 04:35:59;;;;;;;3.00;2.70;;;;;;;31.44;38.61;101282.13;5054381;27;97070;-80
2023/06/26 04:38:26;;;;;;;2.97;2.70;;;;;;;31.43;38.45;101286.81;5044362;27;97287;-80
2023/06/26 04:40:52;;;;;;;2.88;2.60;;;;;;;31.43;38.48;101281.28;5047568;27;98179;-81
2023/06/26 04:43:19;;;;;;;2.53;2.33;;;;;;;31.44;38.48;101282.13;5061186;27;97251;-81
2023/06/26 04:45:45;;;;;;;2.97;2.75;;;;;;;31.43;38.54;101288.75;5063850;27;96980;-80
2023/06/26 04:48:12;;;;;;;2.80;2.50;;;;;;;31.43;38.48;101283.19;5066933;27;96870;-81
2023/06/26 04:50:39;;;;;;;2.60;2.40;;;;;;;31.44;38.39;101296.00;5059824;27;97532;-81
2023/06/26 04:53:07;;;;;;;2.90;2.60;;;;;;;31.44;38.61;101293.22;5054816;27;96794;-80
2023/06/26 04:55:35;;;;;;;3.10;2.80;;;;;;;31.43;38.35;101302.63;5036220;27;97035;-80
2023/06/26 04:58:05;;;;;;;2.70;2.50;;;;;;;31.43;38.51;101300.69;5054607;27;97754;-81
2023/06/26 05:00:32;;;;;;;2.65;2.45;;;;;;;31.42;38.04;101307.34;5052786;27;98696;-80
2023/06/26 05:03:00;;;;;;;2.88;2.63;;;;;;;31.42;38.19;101304.56;5054379;27;96564;-81
2023/06/26 05:05:28;;;;;;;3.20;2.90;;;;;;;31.42;38.29;101306.50;5055288;27;97230;-80
2023/06/26 05:07:55;;;;;;;3.28;2.78;;;;;;;31.42;38.24;101304.56;5053853;27;96931;-80
2023/06/26 05:10:22;;;;;;;3.28;2.97;;;;;;;31.42;38.46;101303.72;5033447;27;98498;-81
2023/06/26 05:12:49;;;;;;;2.65;2.45;;;;;;;31.42;38.67;101301.78;5055396;27;96637;-81
2023/06/26 05:15:15;;;;;;;3.30;2.50;;;;;;;31.43;38.43;101308.19;5056052;27;97072;-81
2023/06/26 05:17:42;;;;;;;3.33;3.03;;;;;;;31.41;38.58;101311.19;5055995;27;96733;-80
2023/06/26 05:20:09;;;;;;;2.60;2.40;;;;;;;31.43;38.26;101309.03;5059641;27;96816;-80
2023/06/26 05:22:38;;;;;;;2.70;2.50;;;;;;;31.43;38.41;101306.25;5058591;27;96611;-81
2023/06/26 05:25:08;;;;;;;2.90;2.60;;;;;;;31.42;38.27;101309.28;5045983;27;96769;-81
2023/06/26 05:27:35;;;;;;;2.97;2.63;;;;;;;31.42;38.55;101307.34;5062295;27;96671;-81
2023/06/26 05:30:03;;;;;;;6.07;2.28;;;;;;;31.42;38.41;101312.03;5062593;27;96575;-81
2023/06/26 05:32:33;;;;;;;2.47;2.28;;;;;;;31.42;38.23;101323.16;5064186;27;97059;-81
2023/06/26 05:35:02;;;;;;;2.60;2.40;;;;;;;31.41;38.52;101325.06;5050157;27;96637;-81
2023/06/26 05:37:30;;;;;;;3.13;2.35;;;;;;;31.41;38.24;101319.53;5050374;27;98717;-81
2023/06/26 05:39:57;;;;;;;2.83;2.53;;;;;;;31.41;38.49;101321.44;5063908;27;96763;-81
2023/06/26 05:42:24;;;;;;;3.00;2.70;;;;;;;31.42;38.45;101328.69;5065605;27;96826;-81
2023/06/26 05:44:51;;;;;;;3.10;2.58;;;;;;;31.41;38.12;101336.19;5053965;27;96830;-81
2023/06/26 05:47:17;;;;;;;2.95;2.60;;;;;;;31.41;38.33;101341.72;5063168;27;98128;-81
2023/06/26 05:49:44;;;;;;;2.65;2.40;;;;;;;31.41;38.30;101352.84;5046099;27;97083;-81
2023/06/26 05:52:11;;;;;;;2.40;2.15;;;;;;;31.42;38.45;101351.75;5053185;27;97173;-81
2023/06/26 05:54:38;;;;;;;2.78;2.55;;;;;;;31.41;38.55;101361.16;5058742;27;96466;-80
2023/06/26 05:57:05;;;;;;;3.55;2.78;;;;;;;31.42;38.33;101360.09;5044831;27;96794;-80
2023/06/26 05:59:32;;;;;;;2.70;2.50;;;;;;;31.41;38.44;101355.59;5057151;27;97138;-80
2023/06/26 06:01:59;;;;;;;3.00;2.70;;;;;;;31.41;38.08;101361.16;5055855;27;96978;-80
2023/06/26 06:04:25;;;;;;;2.60;2.40;;;;;;;31.41;38.06;101366.72;5057123;27;96711;-81
2023/06/26 06:06:52;;;;;;;2.33;2.13;;;;;;;31.42;38.16;101373.13;5056770;27;97117;-80
2023/06/26 06:09:18;;;;;;;3.20;2.33;;;;;;;31.42;38.39;101379.50;5055915;27;96735;-81
2023/06/26 06:11:45;;;;;;;2.97;2.50;;;;;;;31.42;38.18;101378.66;5056823;27;96937;-81
2023/06/26 06:14:12;;;;;;;3.15;2.45;;;;;;;31.41;38.17;101380.59;5054440;27;97104;-81
2023/06/26 06:16:38;;;;;;;3.15;2.72;;;;;;;31.42;38.06;101387.00;5055953;27;98598;-80
2023/06/26 06:19:07;;;;;;;5.32;3.10;;;;;;;31.42;38.40;101387.00;5056443;27;97652;-80
2023/06/26 06:21:34;;;;;;;3.88;3.00;;;;;;;31.42;38.04;101393.41;5055050;27;96870;-80
2023/06/26 06:24:01;;;;;;;3.83;2.40;;;;;;;31.41;38.34;101394.47;5055331;27;96853;-80
2023/06/26 06:26:27;;;;;;;3.42;2.80;;;;;;;31.41;38.32;101402.81;5048267;27;96642;-80
2023/06/26 06:28:54;;;;;;;4.82;2.67;;;;;;;31.41;38.22;101415.84;5050911;27;98087;-80
2023/06/26 06:31:21;;;;;;;4.43;2.92;;;;;;;31.42;37.91;101411.97;5047614;27;96782;-80
2023/06/26 06:33:47;;;;;;;2.42;2.22;;;;;;;31.42;38.22;101420.31;5048208;27;96840;-80
2023/06/26 06:36:14;;;;;;;4.05;2.25;;;;;;;31.40;38.08;101423.31;5051790;27;96852;-80
2023/06/26 06:38:43;;;;;;;4.22;2.72;;;;;;;31.42;38.32;101428.63;5044538;27;96689;-79
2023/06/26 06:41:10;;;;;;;4.45;2.70;;;;;;;31.41;37.97;101427.78;5037056;27;96914;-79
2023/06/26 06:43:36;;;;;;;5.18;2.97;;;;;;;31.41;38.01;101416.69;5017879;27;97281;-80
2023/06/26 06:46:04;;;;;;;3.95;2.60;;;;;;;31.41;37.91;101422.22;5048976;27;96848;-79
2023/06/26 06:48:31;;;;;;;4.07;2.60;;;;;;;31.41;37.91;101419.47;5038227;27;96644;-80
2023/06/26 06:50:57;;;;;;;4.05;2.30;;;;;;;31.41;38.07;101408.34;5057055;27;96918;-80
2023/06/26 06:53:24;;;;;;;3.72;2.78;;;;;;;31.41;37.85;101419.47;5047554;27;96852;-80
2023/06/26 06:55:50;;;;;;;5.72;2.78;;;;;;;31.40;37.69;101423.31;5050105;27;97187;-79
2023/06/26 06:58:19;;;;;;;5.15;2.67;;;;;;;31.41;37.67;101422.22;5038133;27;97547;-80
2023/06/26 07:00:45;;;;;;;2.85;2.22;;;;;;;31.41;37.96;101435.25;5054130;27;96979;-80
2023/06/26 07:03:12;;;;;;;3.75;2.58;;;;;;;31.41;37.82;101438.88;5045967;27;96717;-79
2023/06/26 07:05:41;;;;;;;5.15;2.80;;;;;;;31.42;37.84;101446.13;5048145;27;99379;-80
2023/06/26 07:08:08;;;;;;;3.67;2.75;;;;;;;31.41;37.61;101444.44;5053916;27;97493;-79
2023/06/26 07:10:35;;;;;;;5.15;2.95;;;;;;;31.41;37.84;101450.00;5043229;27;96739;-80
2023/06/26 07:13:02;;;;;;;4.35;2.65;;;;;;;31.41;37.47;101441.66;5043933;27;97114;-80
2023/06/26 07:15:28;;;;;;;4.38;2.47;;;;;;;31.41;37.94;101458.31;5052113;27;96988;-80
2023/06/26 07:17:55;;;;;;;4.43;2.60;;;;;;;31.42;37.89;101462.78;5053705;27;96743;-80
2023/06/26 07:20:22;;;;;;;4.20;2.80;;;;;;;31.41;37.75;101469.41;5049571;27;97131;-80
2023/06/26 07:22:48;;;;;;;5.82;2.88;;;;;;;31.42;37.74;101478.59;5038498;27;97668;-80
2023/06/26 07:25:15;;;;;;;5.65;2.95;;;;;;;31.42;37.61;101481.38;5049953;27;97414;-80
2023/06/26 07:27:42;;;;;;;3.45;2.40;;;;;;;31.41;37.60;101469.41;5054681;27;97531;-80
2023/06/26 07:30:09;;;;;;;3.42;2.40;;;;;;;31.42;37.80;101470.28;5052310;27;96749;-80
2023/06/26 07:32:42;;;;;;;4.15;2.40;;;;;;;31.43;37.35;101474.75;5049939;27;98374;-80
2023/06/26 07:35:09;;;;;;;5.50;2.80;;;;;;;31.41;37.54;101474.13;5046587;27;99764;-79
2023/06/26 07:37:36;;;;;;;4.13;2.60;;;;;;;31.42;37.56;101492.47;5051227;27;97058;-79
2023/06/26 07:40:03;;;;;;;3.17;2.25;;;;;;;31.42;37.57;101487.78;5041957;27;96718;-80
2023/06/26 07:42:30;;;;;;;3.92;2.70;;;;;;;31.41;37.51;101486.06;5042674;27;97630;-79
2023/06/26 07:44:56;;;;;;;4.95;2.65;;;;;;;31.40;37.42;101492.72;5046329;27;96930;-79
2023/06/26 07:47:23;;;;;;;3.20;2.33;;;;;;;31.42;37.55;101500.81;5034219;27;100046;-79
2023/06/26 07:49:49;;;;;;;3.38;2.53;;;;;;;31.41;37.16;101505.50;5044079;27;96799;-79
2023/06/26 07:52:18;;;;;;;4.25;2.40;;;;;;;31.43;37.18;101497.81;5047433;27;97646;-79
2023/06/26 07:54:45;;;;;;;3.15;2.30;;;;;;;31.41;37.71;101508.28;5043571;27;97424;-79
2023/06/26 07:57:12;;;;;;;4.05;2.67;;;;;;;31.42;37.45;101503.59;5049708;27;97362;-80
2023/06/26 07:59:39;;;;;;;5.25;2.67;;;;;;;31.42;37.20;101501.66;5034020;27;97386;-80
2023/06/26 08:02:06;;;;;;;2.83;2.15;;;;;;;31.42;37.35;101512.75;5043151;27;96754;-80
2023/06/26 08:04:33;;;;;;;4.07;2.40;;;;;;;31.42;37.28;101511.91;5025536;27;98858;-80
2023/06/26 08:07:01;;;;;;;3.67;2.40;;;;;;;31.42;37.16;101523.88;5042999;27;96672;-79
2023/06/26 08:09:29;;;;;;;3.67;2.38;;;;;;;31.42;37.39;101515.53;5042465;27;96928;-80
2023/06/26 08:11:56;;;;;;;3.13;2.30;;;;;;;31.42;37.22;101515.53;5043926;27;97446;-80
2023/06/26 08:14:23;;;;;;;3.25;2.17;;;;;;;31.42;37.20;101512.75;5023842;28;99850;-79
2023/06/26 08:16:50;;;;;;;3.67;2.40;;;;;;;31.42;37.01;101512.75;5050832;27;97978;-80
2023/06/26 08:19:17;;;;;;;3.50;2.22;;;;;;;31.41;37.13;101510.22;5054244;27;97318;-80
2023/06/26 08:21:45;;;;;;;3.75;2.47;;;;;;;31.42;37.04;101507.22;5052826;27;97376;-80
2023/06/26 08:24:18;;;;;;;3.70;2.40;;;;;;;31.42;36.90;101511.91;5051908;27;97016;-80
2023/06/26 08:26:46;;;;;;;2.97;2.30;;;;;;;31.41;37.08;101505.50;5054058;27;96872;-80
2023/06/26 08:29:13;;;;;;;3.42;2.13;;;;;;;31.42;36.65;101528.56;5029942;27;97033;-79
2023/06/26 08:31:40;;;;;;;4.30;2.22;;;;;;;31.42;37.00;101511.91;5047342;27;96713;-80
2023/06/26 08:34:07;;;;;;;2.60;2.20;;;;;;;31.42;37.10;101532.19;5038077;27;96848;-79
2023/06/26 08:36:34;;;;;;;6.30;2.58;;;;;;;31.42;36.78;101540.53;5038018;27;97486;-80
2023/06/26 08:39:01;;;;;;;3.00;2.17;;;;;;;31.42;36.61;101525.78;5045977;27;96728;-80
2023/06/26 08:41:27;;;;;;;3.50;2.25;;;;;;;31.42;36.87;101554.41;5049125;27;96787;-80
2023/06/26 08:43:54;;;;;;;2.95;2.10;;;;;;;31.42;36.93;101540.53;5047929;27;97890;-80
2023/06/26 08:46:21;;;;;;;3.30;2.00;;;;;;;31.41;36.71;101544.38;5049226;27;97475;-80
2023/06/26 08:49:01;;;;;;;4.65;2.35;;;;;;;31.43;36.73;101547.78;5050190;27;96595;-79
2023/06/26 08:51:31;;;;;;;2.90;2.08;;;;;;;31.42;36.40;101540.53;5054583;27;96729;-80
2023/06/26 08:53:59;;;;;;;3.10;2.10;;;;;;;31.42;36.76;101540.53;5045802;27;97162;-80
2023/06/26 08:56:37;;;;;;;3.50;2.10;;;;;;;31.43;36.34;101546.91;5053580;27;96561;-80
2023/06/26 08:59:04;;;;;;;3.03;2.33;;;;;;;31.42;36.67;101545.22;5051299;27;96888;-80
2023/06/26 09:01:31;;;;;;;8.13;2.75;;;;;;;31.42;36.38;101548.00;5053050;27;97275;-80
2023/06/26 09:03:58;;;;;;;4.05;2.42;;;;;;;31.42;36.51;101551.63;5050327;27;96721;-80
2023/06/26 09:06:25;;;;;;;2.40;2.08;;;;;;;31.42;36.77;101551.63;5039454;27;96766;-80
2023/06/26 09:08:52;;;;;;;3.88;1.95;;;;;;;31.42;36.26;101551.63;5042122;27;97424;-80
2023/06/26 09:11:18;;;;;;;2.83;2.15;;;;;;;31.42;36.63;101568.28;5050745;27;96910;-80
2023/06/26 09:13:47;;;;;;;3.47;2.30;;;;;;;31.41;36.41;101549.94;5051897;27;96881;-80
2023/06/26 09:16:14;;;;;;;3.25;2.20;;;;;;;31.42;36.68;101571.06;5054226;27;96707;-80
2023/06/26 09:18:42;;;;;;;3.72;2.00;;;;;;;31.42;36.32;101573.84;5054767;27;96698;-80
2023/06/26 09:21:09;;;;;;;2.88;2.20;;;;;;;31.43;36.36;101566.34;5044829;27;97099;-80
2023/06/26 09:23:36;;;;;;;3.47;2.08;;;;;;;31.42;36.35;101578.53;5049616;27;96942;-80
2023/06/26 09:26:04;;;;;;;2.70;2.20;;;;;;;31.42;36.18;101579.38;5046288;27;98000;-80
2023/06/26 09:28:35;;;;;;;3.13;2.40;;;;;;;31.43;36.36;101585.78;5048986;27;97305;-80
2023/06/26 09:31:07;;;;;;;3.45;2.15;;;;;;;31.42;36.21;101607.16;5048860;27;96857;-79
2023/06/26 09:33:36;;;;;;;3.28;2.10;;;;;;;31.42;36.18;101595.19;5048029;27;96568;-80
2023/06/26 09:36:09;;;;;;;3.10;2.30;;;;;;;31.42;36.44;101586.84;5053608;27;97891;-79
2023/06/26 09:38:36;;;;;;;2.83;1.70;;;;;;;31.41;36.24;101580.47;5038524;27;96752;-80
2023/06/26 09:41:03;;;;;;;2.83;1.70;;;;;;;31.42;36.05;101589.63;5066308;27;96746;-80
2023/06/26 09:43:31;;;;;;;3.08;1.80;;;;;;;31.42;35.92;101604.38;5044913;27;96898;-79
2023/06/26 09:46:00;;;;;;;2.80;1.90;;;;;;;31.41;36.02;101583.25;5050389;27;99808;-80
2023/06/26 09:48:27;;;;;;;3.97;1.92;;;;;;;31.42;35.94;101597.97;5051879;27;97227;-80
2023/06/26 09:50:55;;;;;;;3.00;1.75;;;;;;;31.42;36.20;101606.28;5049580;27;96935;-80
2023/06/26 09:53:38;;;;;;;4.00;1.80;;;;;;;31.42;36.01;101612.69;5052432;27;96651;-80
2023/06/26 09:56:07;;;;;;;2.55;1.75;;;;;;;31.42;35.82;101606.28;5051342;27;96867;-80
2023/06/26 09:58:36;;;;;;;2.45;1.70;;;;;;;31.42;35.96;101618.25;5045164;27;96899;-79
2023/06/26 10:01:03;;;;;;;2.90;2.00;;;;;;;31.41;35.76;101621.25;5035945;27;96844;-80
2023/06/26 10:03:30;;;;;;;3.45;2.10;;;;;;;31.42;36.26;101628.50;5037188;27;97323;-78
2023/06/26 10:05:59;;;;;;;2.40;1.50;;;;;;;31.42;36.09;101639.59;5036361;27;97209;-77
2023/06/26 10:08:25;;;;;;;3.72;1.55;;;;;;;31.41;35.94;101613.78;5035725;27;97192;-76
2023/06/26 10:10:53;;;;;;;2.47;2.00;;;;;;;31.42;35.76;101623.81;5017977;27;96719;-78
2023/06/26 10:13:25;;;;;;;2.00;1.38;;;;;;;31.43;35.64;101619.09;5029653;27;100548;-75
2023/06/26 10:15:52;;;;;;;2.45;1.85;;;;;;;31.41;35.97;101618.47;5037952;27;97473;-77
2023/06/26 10:18:20;;;;;;;2.63;1.65;;;;;;;31.41;35.87;101622.09;5042034;27;96689;-78
2023/06/26 10:20:48;;;;;;;2.58;1.65;;;;;;;31.43;35.60;101619.09;5034431;27;97647;-77
2023/06/26 10:23:19;;;;;;;2.90;1.85;;;;;;;31.41;35.76;101622.09;5034847;27;97406;-78
2023/06/26 10:25:50;;;;;;;2.80;1.50;;;;;;;31.42;35.45;101625.72;5037639;27;100751;-79
2023/06/26 10:28:19;;;;;;;2.35;1.50;;;;;;;31.41;35.70;101627.66;5035970;27;96790;-82
2023/06/26 10:30:47;;;;;;;2.53;1.55;;;;;;;31.42;35.53;101632.13;5051281;27;97094;-81
2023/06/26 10:33:18;;;;;;;2.13;1.50;;;;;;;31.41;35.46;101638.75;5042184;27;96648;-80
2023/06/26 10:35:45;;;;;;;1.98;1.60;;;;;;;31.42;35.35;101650.72;5039757;27;97957;-79
2023/06/26 10:38:12;;;;;;;1.75;1.40;;;;;;;31.41;35.39;101644.31;5041352;27;96898;-79
2023/06/26 10:40:48;;;;;;;2.25;1.63;;;;;;;31.42;35.23;101636.84;5045681;27;97227;-78
2023/06/26 10:43:16;;;;;;;1.75;1.20;;;;;;;31.41;35.46;101632.34;5041208;27;96800;-81
2023/06/26 10:45:52;;;;;;;2.70;1.38;;;;;;;31.42;35.11;101647.94;5042131;27;97477;-81
2023/06/26 10:48:20;;;;;;;3.15;1.33;;;;;;;31.41;35.24;101633.22;5045262;27;96813;-81
2023/06/26 10:50:48;;;;;;;3.75;1.50;;;;;;;31.41;35.08;101643.47;5050509;27;96806;-81
2023/06/26 10:53:33;;;;;;;1.50;1.20;;;;;;;31.41;35.21;101654.56;5053346;27;97811;-81
2023/06/26 10:56:05;;;;;;;2.00;1.27;;;;;;;31.40;35.22;101650.94;5054104;27;97680;-82
2023/06/26 10:58:42;;;;;;;1.45;1.05;;;;;;;31.41;34.96;101654.56;5052680;27;96852;-81
2023/06/26 11:01:15;;;;;;;1.50;1.20;;;;;;;31.40;35.05;101675.94;5042526;27;97146;-81
2023/06/26 11:03:48;;;;;;;2.25;1.10;;;;;;;31.40;34.78;101675.94;5027038;27;96961;-82
2023/06/26 11:06:20;;;;;;;1.83;1.38;;;;;;;31.40;34.79;101664.81;5043268;27;97530;-81
2023/06/26 11:08:58;;;;;;;2.97;1.13;;;;;;;31.41;34.94;101658.19;5037878;27;98056;-81
2023/06/26 11:11:54;;;;;;;2.33;1.13;;;;;;;31.40;34.78;101650.09;5026041;27;96740;-81
2023/06/26 11:14:22;;;;;;;1.63;0.93;;;;;;;31.38;34.66;101669.75;5042556;27;96926;-81
2023/06/26 11:16:49;;;;;;;2.15;1.30;;;;;;;31.39;34.75;101690.03;5041493;27;96783;-81
2023/06/26 11:19:18;;;;;;;1.90;1.00;;;;;;;31.39;34.51;101670.59;5056797;27;96835;-81
2023/06/26 11:21:45;;;;;;;1.90;1.20;;;;;;;31.40;34.46;101681.47;5038806;27;96851;-78
2023/06/26 11:24:13;;;;;;;1.98;1.38;;;;;;;31.39;34.49;101674.22;5020041;27;98532;-80
2023/06/26 11:26:44;;;;;;;1.27;1.00;;;;;;;31.40;34.21;101678.69;5035028;27;96800;-80
2023/06/26 11:29:11;;;;;;;2.05;1.35;;;;;;;31.40;34.37;101678.69;5050475;27;96778;-82